createdAt,value
2022-10-13T00:00:57.697Z,77280.97
2022-10-13T00:05:00.596Z,77274.72
2022-10-13T00:09:02.023Z,77274.72
2022-10-13T00:13:03.939Z,77270.56
2022-10-13T00:17:06.731Z,77274.72
2022-10-13T00:21:11.675Z,77274.72
2022-10-13T00:25:13.206Z,77260.19
2022-10-13T00:29:16.445Z,77251.88
2022-10-13T00:33:18.036Z,77253.97
2022-10-13T00:37:20.879Z,77247.75
2022-10-13T00:41:22.480Z,77241.50
2022-10-13T00:45:25.738Z,77253.97
2022-10-13T00:49:27.373Z,77253.97
2022-10-13T00:53:36.277Z,77256.03
2022-10-13T00:57:39.891Z,77253.97
2022-10-13T01:01:41.457Z,77237.34
2022-10-13T01:05:43.432Z,77222.81
2022-10-13T01:09:46.455Z,77220.75
2022-10-13T01:13:56.363Z,77202.06
2022-10-13T01:18:06.315Z,77197.91
2022-10-13T01:22:19.922Z,77210.34
2022-10-13T01:27:00.273Z,77218.66
2022-10-13T01:31:07.976Z,77199.97
2022-10-13T01:35:12.927Z,77212.44
2022-10-13T01:39:23.910Z,77220.75
2022-10-13T01:43:30.455Z,77210.34
2022-10-13T01:47:36.507Z,77216.59
2022-10-13T01:51:39.603Z,77218.66
2022-10-13T01:55:49.722Z,77216.59
2022-10-13T01:59:51.386Z,77208.28
2022-10-13T02:04:12.599Z,77208.28
2022-10-13T02:08:24.415Z,77208.28
2022-10-13T02:12:30.080Z,77195.81
2022-10-13T02:16:36.187Z,77191.66
2022-10-13T02:20:41.300Z,77177.13
2022-10-13T02:24:42.968Z,77191.66
2022-10-13T02:28:44.901Z,77183.34
2022-10-13T02:32:46.367Z,77179.22
2022-10-13T02:36:49.355Z,77179.22
2022-10-13T02:40:51.104Z,77187.50
2022-10-13T02:44:52.677Z,77179.22
2022-10-13T02:48:54.307Z,77177.13
2022-10-13T02:52:57.198Z,77185.44
2022-10-13T02:56:58.695Z,77193.75
2022-10-13T03:01:05.854Z,77193.75
2022-10-13T03:05:08.531Z,77197.91
2022-10-13T03:09:11.487Z,77191.66
2022-10-13T03:13:12.933Z,77181.28
2022-10-13T03:17:14.471Z,77179.22
2022-10-13T03:21:16.059Z,77156.38
2022-10-13T03:25:19.079Z,77121.06
2022-10-13T03:29:23.723Z,77137.66
2022-10-13T03:33:25.143Z,77131.44
2022-10-13T03:37:28.900Z,77129.38
2022-10-13T03:41:31.672Z,77118.97
2022-10-13T03:45:33.139Z,77116.91
2022-10-13T03:49:34.720Z,77102.38
2022-10-13T03:53:36.615Z,77102.38
2022-10-13T03:57:39.492Z,77106.53
2022-10-13T04:01:41.136Z,77110.69
2022-10-13T04:05:43.200Z,77112.75
2022-10-13T04:09:44.847Z,77104.44
2022-10-13T04:13:48.000Z,77112.75
2022-10-13T04:17:49.718Z,77112.75
2022-10-13T04:21:51.282Z,77112.75
2022-10-13T04:25:53.148Z,77092.00
2022-10-13T04:29:56.257Z,77092.00
2022-10-13T04:33:58.020Z,77087.84
2022-10-13T04:37:59.801Z,77069.16
2022-10-13T04:42:01.423Z,77052.53
2022-10-13T04:46:06.856Z,77038.00
2022-10-13T04:50:09.409Z,77046.31
2022-10-13T04:54:11.058Z,77060.84
2022-10-13T04:58:12.617Z,77021.38
2022-10-13T05:02:15.630Z,77017.22
2022-10-13T05:06:18.997Z,77038.00
2022-10-13T05:10:20.481Z,77042.16
2022-10-13T05:14:22.269Z,77042.16
2022-10-13T05:18:25.331Z,77046.31
2022-10-13T05:22:27.957Z,77006.84
2022-10-13T05:26:29.717Z,76992.31
2022-10-13T05:30:31.804Z,77019.31
2022-10-13T05:34:34.757Z,77031.75
2022-10-13T05:38:36.467Z,77046.31
2022-10-13T05:42:39.304Z,77011.00
2022-10-13T05:46:40.849Z,76996.47
2022-10-13T05:50:43.778Z,76988.16
2022-10-13T05:54:50.293Z,76971.53
2022-10-13T05:58:57.707Z,76984.00
2022-10-13T06:03:04.699Z,76984.00
2022-10-13T06:07:09.035Z,76996.47
2022-10-13T06:11:10.699Z,76986.09
2022-10-13T06:15:12.161Z,76988.16
2022-10-13T06:19:13.831Z,76932.09
2022-10-13T06:23:16.789Z,76940.41
2022-10-13T06:27:18.380Z,76934.16
2022-10-13T06:31:20.164Z,76927.94
2022-10-13T06:35:21.766Z,76896.78
2022-10-13T06:39:24.720Z,76898.88
2022-10-13T06:43:34.401Z,76900.94
2022-10-13T06:47:40.749Z,76898.88
2022-10-13T06:51:42.316Z,76867.72
2022-10-13T06:55:49.036Z,76844.88
2022-10-13T06:59:53.121Z,76842.81
2022-10-13T07:03:54.702Z,76830.34
2022-10-13T07:07:56.357Z,76801.28
2022-10-13T07:11:59.560Z,76784.66
2022-10-13T07:16:02.782Z,76768.06
2022-10-13T07:20:07.462Z,76697.44
2022-10-13T07:24:11.219Z,76635.16
2022-10-13T07:28:14.239Z,76570.78
2022-10-13T07:32:15.732Z,76570.78
2022-10-13T07:36:17.957Z,76531.34
2022-10-13T07:40:19.633Z,76558.34
2022-10-13T07:44:22.725Z,76531.34
2022-10-13T07:48:24.352Z,76527.19
2022-10-13T07:52:25.757Z,76533.41
2022-10-13T07:56:27.419Z,76552.09
2022-10-13T08:00:30.319Z,76566.63
2022-10-13T08:04:32.904Z,76577.03
2022-10-13T08:08:34.965Z,76560.41
2022-10-13T08:12:36.647Z,76535.50
2022-10-13T08:16:39.644Z,76535.50
2022-10-13T08:20:43.674Z,76523.03
2022-10-13T08:24:45.644Z,76506.44
2022-10-13T08:29:02.809Z,76510.59
2022-10-13T08:33:10.005Z,76506.44
2022-10-13T08:37:13.845Z,76506.44
2022-10-13T08:41:17.867Z,76491.91
2022-10-13T08:45:52.151Z,76464.91
2022-10-13T08:49:47.067Z,76493.97
2022-10-13T08:53:49.221Z,76483.59
2022-10-13T08:57:51.117Z,76464.91
2022-10-13T09:01:54.053Z,76427.53
2022-10-13T09:06:13.279Z,76386.00
2022-10-13T09:10:18.049Z,76336.19
2022-10-13T09:14:22.409Z,76327.88
2022-10-13T09:18:28.502Z,76317.50
2022-10-13T09:22:33.145Z,76265.59
2022-10-13T09:26:38.293Z,76257.28
2022-10-13T09:30:41.748Z,76253.13
2022-10-13T09:34:43.923Z,76234.44
2022-10-13T09:39:05.743Z,76230.28
2022-10-13T09:43:28.686Z,76209.53
2022-10-13T09:47:31.513Z,76192.91
2022-10-13T09:51:37.459Z,76122.31
2022-10-13T09:55:40.276Z,76066.28
2022-10-13T09:59:47.050Z,76057.97
2022-10-13T10:03:50.608Z,75991.53
2022-10-13T10:07:52.525Z,75991.53
2022-10-13T10:11:58.898Z,75937.56
2022-10-13T10:16:07.636Z,75891.88
2022-10-13T10:20:42.139Z,75893.97
2022-10-13T10:24:51.649Z,75827.53
2022-10-13T10:29:17.555Z,75738.28
2022-10-13T10:33:22.151Z,75709.19
2022-10-13T10:37:38.079Z,75740.34
2022-10-13T10:41:49.187Z,75777.72
2022-10-13T10:45:56.494Z,75833.75
2022-10-13T10:50:03.165Z,75788.09
2022-10-13T10:54:21.556Z,75786.00
2022-10-13T10:58:33.212Z,75790.16
2022-10-13T11:02:47.093Z,75794.31
2022-10-13T11:06:48.864Z,75858.66
2022-10-13T11:11:36.422Z,75871.13
2022-10-13T11:15:44.713Z,75900.19
2022-10-13T11:19:48.704Z,75941.72
2022-10-13T11:23:50.313Z,75958.31
2022-10-13T11:27:52.079Z,75952.09
2022-10-13T11:31:54.659Z,75997.75
2022-10-13T11:35:57.657Z,75979.09
2022-10-13T11:40:20.008Z,76033.06
2022-10-13T11:44:31.219Z,76033.06
2022-10-13T11:49:01.657Z,76024.75
2022-10-13T11:53:24.405Z,76045.50
2022-10-13T11:57:27.298Z,76064.19
2022-10-13T12:01:29.065Z,76043.44
2022-10-13T12:05:30.633Z,76004.00
2022-10-13T12:09:38.859Z,76037.22
2022-10-13T12:13:46.802Z,76020.59
2022-10-13T12:17:48.269Z,76028.91
2022-10-13T12:21:50.916Z,75999.84
2022-10-13T12:25:54.431Z,76051.75
2022-10-13T12:29:56.130Z,76030.97
2022-10-13T12:33:59.502Z,76057.97
2022-10-13T12:38:03.956Z,76028.91
2022-10-13T12:42:08.052Z,76024.75
2022-10-13T15:06:23.880Z,76111.94
2022-10-13T15:10:25.576Z,76124.41
2022-10-13T15:14:26.988Z,76114.03
2022-10-13T15:18:29.452Z,76107.78
2022-10-13T15:22:32.586Z,76134.78
2022-10-13T15:26:34.051Z,76111.94
2022-10-13T15:30:35.715Z,76128.56
2022-10-13T15:34:38.691Z,76149.31
2022-10-13T15:38:42.041Z,76149.31
2022-10-13T15:42:43.611Z,76165.94
2022-10-13T15:47:05.507Z,76165.94
2022-10-13T15:51:13.359Z,76165.94
2022-10-13T15:55:16.304Z,76155.53
2022-10-13T15:59:19.443Z,76153.47
2022-10-13T16:03:20.869Z,76161.78
2022-10-13T16:07:22.664Z,76209.53
2022-10-13T16:11:25.919Z,76203.28
2022-10-13T16:15:27.347Z,76244.81
2022-10-13T16:19:28.823Z,76261.44
2022-10-13T16:23:30.222Z,76251.06
2022-10-13T16:27:33.423Z,76253.13
2022-10-13T16:31:34.880Z,76263.50
2022-10-13T16:35:36.491Z,76273.88
2022-10-13T16:39:42.636Z,76273.88
2022-10-13T16:43:47.496Z,76286.34
2022-10-13T16:47:50.522Z,76284.28
2022-10-13T16:51:51.991Z,76290.50
2022-10-13T16:55:53.541Z,76298.81
2022-10-13T16:59:56.527Z,76294.66
2022-10-13T17:03:58.762Z,76298.81
2022-10-13T17:08:00.390Z,76305.03
2022-10-13T17:12:02.198Z,76315.41
2022-10-13T17:16:05.520Z,76323.72
2022-10-13T17:20:07.761Z,76325.78
2022-10-13T17:24:09.234Z,76327.88
2022-10-13T17:28:11.674Z,76319.56
2022-10-13T17:32:15.743Z,76317.50
2022-10-13T17:36:19.675Z,76319.56
2022-10-13T17:40:21.247Z,76332.03
2022-10-13T17:44:22.690Z,76327.88
2022-10-13T17:48:25.598Z,76344.47
2022-10-13T17:52:27.248Z,76356.94
2022-10-13T17:56:29.208Z,76367.31
2022-10-13T18:00:34.090Z,76375.63
2022-10-13T18:04:46.855Z,76371.47
2022-10-13T18:08:48.492Z,76377.69
2022-10-13T18:12:49.930Z,76373.53
2022-10-13T18:16:52.252Z,76373.53
2022-10-13T18:20:55.162Z,76375.63
2022-10-13T18:24:57.301Z,76377.69
2022-10-13T18:28:58.945Z,76373.53
2022-10-13T18:33:00.597Z,76386.00
2022-10-13T18:37:03.565Z,76400.53
2022-10-13T18:41:05.463Z,76415.06
2022-10-13T18:45:08.131Z,76410.91
2022-10-13T18:49:12.220Z,76415.06
2022-10-13T18:53:15.225Z,76413.00
2022-10-13T18:57:16.805Z,76423.38
2022-10-13T19:01:20.039Z,76431.69
2022-10-13T19:05:21.794Z,76425.44
2022-10-13T19:09:24.573Z,76435.84
2022-10-13T19:13:26.393Z,76437.91
2022-10-13T19:17:28.220Z,76435.84
2022-10-13T19:21:29.972Z,76446.22
2022-10-13T19:25:32.985Z,76452.44
2022-10-13T19:29:34.393Z,76452.44
2022-10-13T19:33:39.678Z,76464.91
2022-10-13T19:37:45.164Z,76462.81
2022-10-13T19:41:49.507Z,76485.66
2022-10-13T19:45:51.060Z,76481.50
2022-10-13T19:49:52.541Z,76477.34
2022-10-13T19:53:54.700Z,76504.34
2022-10-13T19:57:57.843Z,76498.13
2022-10-13T20:01:59.540Z,76493.97
2022-10-13T20:06:04.011Z,76498.13
2022-10-13T20:10:06.078Z,76514.72
2022-10-13T20:14:08.931Z,76516.81
2022-10-13T20:18:10.849Z,76512.66
2022-10-13T20:22:12.507Z,76504.34
2022-10-13T20:26:14.355Z,76508.50
2022-10-13T20:30:17.532Z,76512.66
2022-10-13T20:34:19.117Z,76514.72
2022-10-13T20:38:20.540Z,76525.13
2022-10-13T20:42:22.082Z,76527.19
2022-10-13T20:46:25.298Z,76525.13
2022-10-13T20:50:27.211Z,76531.34
2022-10-13T20:54:28.782Z,76527.19
2022-10-13T20:58:32.461Z,76531.34
2022-10-13T21:02:35.639Z,76535.50
2022-10-13T21:06:37.207Z,76531.34
2022-10-13T21:10:38.692Z,76537.56
2022-10-13T21:14:40.410Z,76539.66
2022-10-13T21:18:45.531Z,76543.81
2022-10-13T21:22:46.982Z,76543.81
2022-10-13T21:26:48.406Z,76539.66
2022-10-13T21:30:59.287Z,76539.66
2022-10-13T21:35:02.280Z,76539.66
2022-10-13T21:39:05.510Z,76535.50
2022-10-13T21:43:06.895Z,76535.50
2022-10-13T21:47:08.406Z,76539.66
2022-10-13T21:51:16.832Z,76539.66
2022-10-13T21:55:18.342Z,76531.34
2022-10-13T21:59:19.950Z,76535.50
2022-10-13T22:03:21.523Z,76537.56
2022-10-13T22:07:24.622Z,76539.66
2022-10-13T22:11:28.666Z,76547.94
2022-10-13T22:15:33.358Z,76537.56
2022-10-13T22:19:34.951Z,76539.66
2022-10-13T22:23:37.806Z,76533.41
2022-10-13T22:27:39.390Z,76537.56
2022-10-13T22:31:41.418Z,76539.66
2022-10-13T22:35:42.861Z,76539.66
2022-10-13T22:39:45.847Z,76539.66
2022-10-13T22:43:50.174Z,76547.94
2022-10-13T22:47:51.707Z,76539.66
2022-10-13T22:51:53.155Z,76547.94
2022-10-13T22:56:28.290Z,76545.88
2022-10-13T23:00:28.592Z,76545.88
2022-10-13T23:04:30.313Z,76539.66
2022-10-13T23:08:32.130Z,76535.50
2022-10-13T23:12:35.007Z,76518.88
2022-10-13T23:16:36.440Z,76523.03
2022-10-13T23:20:39.187Z,76523.03
2022-10-13T23:24:40.787Z,76527.19
2022-10-13T23:28:43.913Z,76502.28
2022-10-13T23:32:45.511Z,76498.13
2022-10-13T23:36:46.998Z,76502.28
2022-10-13T23:40:48.740Z,76506.44
2022-10-13T23:44:51.543Z,76485.66
2022-10-13T23:48:53.058Z,76471.13
2022-10-13T23:52:55.762Z,76491.91
2022-10-13T23:56:57.658Z,76485.66
